Time;durP1;ratioP1;P1;durP2;ratioP2;P2;SDS_P1;SDS_P2;PMS_P1;PMS_P2;Temp;Humidity;BMP_temperature;BMP_pressure;BME280_temperature;BME280_humidity;BME280_pressure;Samples;Min_cycle;Max_cycle;Signal;HPM_P1;HPM_P2
2022/07/23 00:00:07;;;;;;;10.82;7.35;;;;;;;21.63;66.72;100731.44;9907866;29;20241;-81
2022/07/23 00:05:10;;;;;;;10.85;7.60;;;;;;;21.53;66.04;100718.59;9892727;30;20244;-78
2022/07/23 00:10:12;;;;;;;10.20;7.38;;;;;;;21.71;65.73;100732.44;9900119;30;20205;-79
2022/07/23 00:15:15;;;;;;;11.15;7.65;;;;;;;21.57;66.28;100739.41;9903758;29;20245;-82
2022/07/23 00:20:18;;;;;;;14.67;8.07;;;;;;;21.27;67.15;100757.28;9907644;29;20302;-81
2022/07/23 00:25:22;;;;;;;15.35;8.07;;;;;;;21.36;66.25;100757.94;9896951;29;20237;-79
2022/07/23 00:30:33;;;;;;;18.80;8.57;;;;;;;21.39;66.97;100737.31;9885351;29;20318;-79
2022/07/23 00:35:37;;;;;;;15.83;9.30;;;;;;;21.42;66.43;100725.16;9892579;30;20252;-80
2022/07/23 00:40:40;;;;;;;12.17;8.63;;;;;;;21.43;66.94;100739.03;9899440;30;20301;-80
2022/07/23 00:45:42;;;;;;;14.40;8.83;;;;;;;21.47;67.63;100739.13;9880424;30;21178;-82
2022/07/23 00:50:45;;;;;;;17.27;9.35;;;;;;;21.48;67.02;100733.09;9906456;29;20229;-80
2022/07/23 00:55:48;;;;;;;13.53;9.67;;;;;;;21.52;66.18;100736.84;9901735;30;20248;-86
2022/07/23 01:00:50;;;;;;;11.97;9.30;;;;;;;21.39;66.64;100714.53;9903343;30;20299;-82
2022/07/23 01:05:53;;;;;;;13.95;10.32;;;;;;;21.48;67.12;100718.03;9903410;29;20233;-78
2022/07/23 01:10:56;;;;;;;15.33;11.23;;;;;;;21.53;67.80;100703.53;9906627;30;20259;-85
2022/07/23 01:15:58;;;;;;;13.73;10.77;;;;;;;21.31;68.36;100715.53;9906026;30;20708;-83
2022/07/23 01:21:01;;;;;;;14.40;10.27;;;;;;;21.51;66.88;100706.75;9921064;29;20267;-80
2022/07/23 01:26:03;;;;;;;12.87;10.67;;;;;;;21.45;66.55;100713.06;9903759;30;20294;-83
2022/07/23 01:31:06;;;;;;;15.97;11.20;;;;;;;21.54;67.67;100700.28;9889029;29;20265;-83
2022/07/23 01:36:10;;;;;;;16.33;12.10;;;;;;;21.44;68.29;100712.22;9875108;30;20325;-82
2022/07/23 01:41:13;;;;;;;15.85;12.10;;;;;;;21.59;67.52;100704.91;9905696;30;20298;-82
2022/07/23 01:46:17;;;;;;;16.50;12.17;;;;;;;21.60;67.46;100709.41;9891673;30;20302;-83
2022/07/23 01:51:23;;;;;;;17.75;12.98;;;;;;;21.78;66.00;100704.16;9882848;30;20601;-79
2022/07/23 01:56:32;;;;;;;19.13;12.17;;;;;;;21.65;66.73;100706.28;9899774;29;20330;-80
2022/07/23 02:01:34;;;;;;;20.83;13.03;;;;;;;21.35;67.47;100702.25;9906618;29;20237;-83
2022/07/23 02:06:37;;;;;;;17.05;13.40;;;;;;;21.24;68.30;100699.13;9911989;30;20201;-80
2022/07/23 02:11:40;;;;;;;19.73;13.83;;;;;;;21.16;69.02;100695.19;9897546;30;20209;-80
2022/07/23 02:16:42;;;;;;;23.98;14.20;;;;;;;21.38;66.92;100684.44;9908293;30;20684;-85
2022/07/23 02:21:45;;;;;;;19.33;14.87;;;;;;;21.51;65.67;100681.13;9901465;30;20499;-80
2022/07/23 02:26:47;;;;;;;17.88;14.73;;;;;;;21.29;67.02;100686.63;9899545;30;20206;-84
2022/07/23 02:31:50;;;;;;;22.93;14.63;;;;;;;21.26;67.94;100693.06;9926067;29;20294;-83
2022/07/23 02:36:52;;;;;;;19.67;14.23;;;;;;;21.36;68.02;100683.97;9908470;30;20214;-79
2022/07/23 02:41:56;;;;;;;18.87;14.30;;;;;;;21.45;66.96;100684.63;9908776;30;20271;-82
2022/07/23 02:46:59;;;;;;;18.80;13.80;;;;;;;21.29;67.54;100681.75;9910830;30;20227;-78
2022/07/23 02:52:02;;;;;;;21.50;14.25;;;;;;;21.31;67.10;100687.91;9909224;30;20262;-77
2022/07/23 02:57:04;;;;;;;18.08;14.60;;;;;;;21.17;68.31;100699.69;9880476;30;20680;-80
2022/07/23 03:02:07;;;;;;;18.43;14.57;;;;;;;21.32;67.82;100700.13;9909275;30;20213;-80
2022/07/23 03:07:09;;;;;;;19.13;14.33;;;;;;;21.60;65.38;100692.31;9904634;29;20480;-82
2022/07/23 03:12:12;;;;;;;18.17;14.67;;;;;;;21.25;66.69;100699.94;9903019;30;20248;-79
2022/07/23 03:17:16;;;;;;;15.63;12.63;;;;;;;21.21;67.34;100714.03;9896386;30;20256;-81
2022/07/23 03:22:19;;;;;;;14.57;11.50;;;;;;;21.03;66.98;100707.00;9894901;30;20301;-80
2022/07/23 03:27:24;;;;;;;17.87;12.87;;;;;;;20.94;67.02;100701.50;9902554;30;20290;-81
2022/07/23 03:32:27;;;;;;;15.83;11.57;;;;;;;20.99;66.79;100692.72;9873264;29;20332;-83
2022/07/23 03:37:30;;;;;;;14.37;11.97;;;;;;;20.75;67.15;100696.53;9882022;30;20261;-78
2022/07/23 03:42:36;;;;;;;13.57;10.52;;;;;;;20.85;66.62;100695.16;9870101;30;20225;-82
2022/07/23 03:47:39;;;;;;;17.75;12.35;;;;;;;20.64;67.84;100688.84;9874984;30;20230;-83
2022/07/23 03:52:42;;;;;;;13.80;11.73;;;;;;;20.60;68.63;100702.16;9899450;30;20296;-80
2022/07/23 03:57:46;;;;;;;15.20;11.40;;;;;;;20.88;67.01;100702.16;9902588;30;20278;-79
2022/07/23 04:02:49;;;;;;;14.83;11.43;;;;;;;20.67;67.78;100705.19;9902689;30;20209;-84
2022/07/23 04:07:52;;;;;;;18.47;11.03;;;;;;;20.82;66.03;100701.56;9917751;29;20338;-85
2022/07/23 04:12:55;;;;;;;15.23;10.87;;;;;;;20.70;66.86;100707.31;9902522;30;20201;-86
2022/07/23 04:17:57;;;;;;;12.83;10.57;;;;;;;21.02;64.99;100713.91;9904266;29;20281;-84
2022/07/23 04:23:09;;;;;;;12.38;10.57;;;;;;;20.99;65.19;100718.31;9910070;30;20236;-85
2022/07/23 04:28:12;;;;;;;11.95;10.07;;;;;;;20.59;66.06;100709.00;9905051;30;20266;-83
2022/07/23 04:33:16;;;;;;;11.13;9.98;;;;;;;20.79;65.41;100714.47;9905569;29;20642;-85
2022/07/23 04:38:20;;;;;;;11.80;10.17;;;;;;;20.86;64.91;100714.69;9909810;30;20248;-81
2022/07/23 04:43:25;;;;;;;12.87;10.33;;;;;;;20.88;65.33;100719.19;9894958;30;20201;-79
2022/07/23 04:48:28;;;;;;;12.30;10.47;;;;;;;20.73;65.23;100732.16;9908064;30;20238;-79
2022/07/23 04:53:41;;;;;;;12.93;10.10;;;;;;;20.69;66.05;100739.75;9880748;30;20615;-82
2022/07/23 04:58:45;;;;;;;10.87;9.63;;;;;;;20.13;66.34;100743.28;9924142;29;20256;-78
2022/07/23 05:03:48;;;;;;;11.27;10.07;;;;;;;20.15;67.57;100748.63;9894591;30;20201;-78
2022/07/23 05:08:50;;;;;;;13.70;11.60;;;;;;;20.53;66.54;100756.72;9908581;30;20235;-81
2022/07/23 05:13:54;;;;;;;13.10;11.47;;;;;;;21.02;64.01;100751.69;9909382;30;20193;-83
2022/07/23 05:18:57;;;;;;;13.53;11.27;;;;;;;21.16;63.90;100759.78;9909381;30;20221;-79
2022/07/23 05:24:00;;;;;;;13.55;11.20;;;;;;;20.91;64.60;100761.91;9893756;30;20262;-81
2022/07/23 05:29:02;;;;;;;27.77;19.43;;;;;;;21.13;63.96;100761.38;9892581;29;20246;-79
2022/07/23 05:34:05;;;;;;;27.93;20.30;;;;;;;21.13;65.67;100760.53;9889963;30;20272;-77
2022/07/23 05:39:09;;;;;;;34.53;24.95;;;;;;;21.44;64.14;100756.94;9874169;30;20671;-81
2022/07/23 05:44:12;;;;;;;45.63;32.50;;;;;;;21.37;64.06;100768.97;9896429;29;20225;-83
2022/07/23 05:49:17;;;;;;;42.10;32.20;;;;;;;21.06;66.44;100774.53;9919225;29;20225;-80
2022/07/23 05:54:41;;;;;;;51.37;37.53;;;;;;;21.31;65.08;100778.09;9894601;30;20201;-80
2022/07/23 05:59:44;;;;;;;52.93;38.23;;;;;;;20.93;67.08;100781.47;9904301;30;20318;-80
2022/07/23 06:04:49;;;;;;;54.70;39.87;;;;;;;21.20;66.72;100787.16;9906139;30;20238;-82
2022/07/23 06:10:00;;;;;;;59.93;41.47;;;;;;;21.03;66.73;100792.31;9903626;30;20209;-87
2022/07/23 06:15:03;;;;;;;58.67;41.23;;;;;;;21.24;64.78;100783.63;9906788;29;20330;-86
2022/07/23 06:20:12;;;;;;;55.93;42.37;;;;;;;21.33;64.88;100789.97;9917630;29;20253;-86
2022/07/23 06:25:16;;;;;;;58.93;41.30;;;;;;;21.12;67.25;100791.00;9905712;30;20616;-79
2022/07/23 06:30:21;;;;;;;54.27;40.83;;;;;;;20.99;66.38;100791.41;9900590;29;20793;-83
2022/07/23 06:35:26;;;;;;;60.35;41.05;;;;;;;21.33;64.58;100795.66;9898104;29;20266;-85
2022/07/23 06:40:28;;;;;;;51.00;38.22;;;;;;;21.65;64.33;100791.66;9909317;29;20314;-80
2022/07/23 06:45:31;;;;;;;51.97;38.93;;;;;;;21.67;64.39;100809.19;9900305;29;20644;-78
2022/07/23 06:50:34;;;;;;;50.13;37.50;;;;;;;21.64;64.44;100807.09;9916662;29;20197;-78
2022/07/23 06:55:38;;;;;;;51.63;37.17;;;;;;;22.55;62.51;100801.25;9867331;30;20606;-79
2022/07/23 07:00:40;;;;;;;53.27;39.73;;;;;;;22.61;63.29;100806.31;9898526;30;20261;-78
2022/07/23 07:05:42;;;;;;;45.70;34.85;;;;;;;22.85;60.97;100810.06;9904974;29;20229;-78
2022/07/23 07:10:45;;;;;;;44.77;37.23;;;;;;;21.93;62.35;100809.50;9859861;29;20273;-78
2022/07/23 07:15:47;;;;;;;41.22;36.03;;;;;;;22.40;62.02;100814.34;9901656;29;20225;-78
2022/07/23 07:20:50;;;;;;;40.50;35.83;;;;;;;22.02;63.23;100817.88;9907156;29;20245;-82
2022/07/23 07:25:53;;;;;;;44.80;39.45;;;;;;;22.31;62.35;100819.41;9896884;30;20286;-82
2022/07/23 07:30:55;;;;;;;46.13;38.80;;;;;;;22.36;63.89;100816.25;9891086;30;20261;-81
2022/07/23 07:35:58;;;;;;;45.60;40.03;;;;;;;21.46;63.56;100825.69;9892354;29;20237;-82
2022/07/23 07:41:00;;;;;;;44.83;37.70;;;;;;;22.63;59.88;100818.16;9894756;30;20694;-84
2022/07/23 07:46:03;;;;;;;42.88;35.08;;;;;;;22.28;61.45;100831.53;9909386;29;20229;-82
2022/07/23 07:51:06;;;;;;;41.63;35.65;;;;;;;22.77;59.18;100825.38;9912587;29;20255;-80
2022/07/23 07:56:11;;;;;;;39.40;33.50;;;;;;;23.49;59.21;100834.25;9913670;29;20212;-79
2022/07/23 08:01:13;;;;;;;30.20;26.97;;;;;;;22.44;58.84;100846.59;9891510;29;20629;-79
2022/07/23 08:06:16;;;;;;;28.13;25.03;;;;;;;23.89;56.22;100836.66;9909685;30;20294;-83
2022/07/23 08:11:18;;;;;;;25.92;21.73;;;;;;;22.77;56.20;100842.50;9906520;29;20285;-84
2022/07/23 08:16:20;;;;;;;26.48;22.13;;;;;;;23.59;56.18;100840.19;9908581;30;20419;-78
2022/07/23 08:21:23;;;;;;;24.10;21.67;;;;;;;23.37;59.52;100848.69;9910740;30;20268;-77
2022/07/23 08:26:25;;;;;;;19.65;17.30;;;;;;;24.23;52.96;100846.25;9910730;29;20540;-82
2022/07/23 08:31:27;;;;;;;11.48;9.75;;;;;;;23.36;50.54;100869.88;9901487;29;20266;-82
2022/07/23 08:36:32;;;;;;;10.77;9.60;;;;;;;22.92;53.02;100861.56;9881315;29;20226;-83
2022/07/23 08:41:34;;;;;;;12.65;9.43;;;;;;;23.67;51.75;100864.00;9911642;29;20325;-79
2022/07/23 08:46:39;;;;;;;10.45;8.48;;;;;;;24.98;50.38;100868.28;9900744;30;20701;-80
2022/07/23 08:51:45;;;;;;;10.70;7.65;;;;;;;24.74;49.47;100867.53;9898466;30;20235;-87
2022/07/23 08:56:48;;;;;;;7.40;6.70;;;;;;;22.47;52.27;100879.22;9913324;29;20205;-86
2022/07/23 09:01:50;;;;;;;12.40;7.05;;;;;;;23.80;50.57;100865.47;9878033;30;20260;-82
2022/07/23 09:06:53;;;;;;;10.10;6.03;;;;;;;24.76;46.02;100864.28;9902366;29;20232;-83
2022/07/23 09:12:07;;;;;;;11.00;6.85;;;;;;;23.25;49.88;100872.47;9880573;30;20230;-79
2022/07/23 09:17:12;;;;;;;10.93;6.10;;;;;;;24.81;47.43;100863.94;9862934;30;20302;-83
2022/07/23 09:22:28;;;;;;;6.70;5.35;;;;;;;24.31;46.41;100862.31;9871122;29;20710;-82
2022/07/23 09:27:53;;;;;;;9.15;6.38;;;;;;;25.22;44.40;100864.94;9889979;29;20301;-79
2022/07/23 09:33:14;;;;;;;8.95;5.43;;;;;;;25.61;45.05;100864.59;9874631;30;20264;-83
2022/07/23 09:38:19;;;;;;;6.82;5.25;;;;;;;25.20;45.70;100867.38;9885064;29;20774;-82
2022/07/23 09:43:30;;;;;;;7.05;4.30;;;;;;;24.34;46.06;100879.53;9908884;29;20289;-80
2022/07/23 09:48:36;;;;;;;6.20;5.13;;;;;;;24.13;45.61;100875.50;9878733;29;20229;-83
2022/07/23 09:53:39;;;;;;;5.78;5.22;;;;;;;24.22;45.69;100879.72;9868035;29;20569;-83
2022/07/23 09:58:48;;;;;;;6.88;4.25;;;;;;;24.89;46.38;100867.75;9879850;29;20328;-83
2022/07/23 10:03:51;;;;;;;5.35;4.70;;;;;;;23.73;46.65;100873.91;9880923;29;20677;-84
2022/07/23 10:09:24;;;;;;;6.00;5.40;;;;;;;23.79;47.24;100866.66;9871810;29;20241;-83
2022/07/23 10:14:45;;;;;;;7.13;5.70;;;;;;;24.42;44.03;100866.16;9894497;29;20310;-84
2022/07/23 10:19:48;;;;;;;7.50;6.03;;;;;;;25.60;43.39;100855.19;9893983;30;20248;-85
2022/07/23 10:24:53;;;;;;;6.07;4.97;;;;;;;25.82;42.77;100856.28;9898490;29;20546;-85
2022/07/23 10:30:06;;;;;;;7.05;5.85;;;;;;;25.30;43.18;100860.97;9895690;29;20202;-81
2022/07/23 10:35:28;;;;;;;8.77;6.88;;;;;;;25.88;40.73;100863.28;9907524;30;20275;-81
2022/07/23 10:40:30;;;;;;;6.95;6.25;;;;;;;25.57;40.73;100858.81;9900088;29;20248;-81
2022/07/23 10:45:35;;;;;;;8.82;5.50;;;;;;;25.90;40.35;100855.13;9907370;30;20213;-83
2022/07/23 10:50:38;;;;;;;6.75;6.15;;;;;;;25.73;40.09;100855.72;9905742;29;20209;-84
2022/07/23 10:55:50;;;;;;;7.10;5.47;;;;;;;26.47;37.98;100850.72;9896440;30;20201;-82
2022/07/23 11:00:52;;;;;;;7.10;6.40;;;;;;;26.58;37.91;100856.56;9909188;30;20249;-82
2022/07/23 11:05:55;;;;;;;7.28;6.63;;;;;;;26.63;37.99;100847.56;9924534;29;20239;-81
2022/07/23 11:11:00;;;;;;;6.45;5.85;;;;;;;26.05;39.39;100848.31;9895821;30;20256;-84
2022/07/23 11:16:12;;;;;;;5.10;4.50;;;;;;;25.94;39.34;100849.44;9909429;30;20759;-85
2022/07/23 11:21:30;;;;;;;4.78;4.35;;;;;;;25.99;39.18;100852.75;9901484;30;20237;-86
2022/07/23 11:26:58;;;;;;;3.95;3.63;;;;;;;26.32;36.97;100851.84;9921583;29;20213;-84
2022/07/23 11:32:06;;;;;;;4.45;4.05;;;;;;;27.09;37.96;100847.06;9907527;29;20310;-85
2022/07/23 11:37:11;;;;;;;5.13;4.72;;;;;;;26.60;38.30;100838.97;9906519;29;20209;-82
2022/07/23 11:42:18;;;;;;;3.83;3.53;;;;;;;26.85;38.23;100843.63;9908048;29;20221;-81
2022/07/23 11:47:23;;;;;;;4.47;2.90;;;;;;;27.22;37.31;100834.00;9875265;29;20348;-84
2022/07/23 11:52:27;;;;;;;5.43;3.05;;;;;;;26.93;37.51;100837.91;9893418;30;20209;-84
2022/07/23 11:57:32;;;;;;;3.20;2.85;;;;;;;28.03;35.44;100827.63;9909476;30;20209;-86
2022/07/23 12:02:35;;;;;;;4.10;2.58;;;;;;;27.10;36.02;100831.50;9904395;29;20278;-82
2022/07/23 12:07:44;;;;;;;4.40;2.08;;;;;;;27.85;34.40;100829.69;9907742;30;20208;-83
2022/07/23 12:12:52;;;;;;;2.10;1.88;;;;;;;26.45;35.85;100841.72;9890890;30;20209;-84
2022/07/23 12:17:54;;;;;;;3.78;2.33;;;;;;;26.52;36.37;100843.81;9892268;30;20231;-82
2022/07/23 12:22:59;;;;;;;2.50;1.88;;;;;;;27.06;35.21;100831.47;9877154;30;20225;-82
2022/07/23 12:28:07;;;;;;;3.83;1.73;;;;;;;27.04;34.58;100827.34;9908102;30;20604;-80
2022/07/23 12:33:14;;;;;;;3.10;1.90;;;;;;;26.58;34.98;100830.75;9907077;29;20237;-82
2022/07/23 12:38:19;;;;;;;4.07;2.15;;;;;;;28.22;34.44;100823.56;9891102;29;20680;-82
2022/07/23 12:43:35;;;;;;;1.60;1.45;;;;;;;28.66;33.81;100820.28;9897776;30;20262;-82
2022/07/23 12:48:49;;;;;;;3.72;1.88;;;;;;;28.43;32.55;100816.97;9912806;30;20201;-84
2022/07/23 12:53:56;;;;;;;1.98;1.50;;;;;;;28.65;31.79;100824.38;9926477;29;20545;-84
2022/07/23 12:59:13;;;;;;;1.92;1.27;;;;;;;27.04;34.08;100839.66;9910531;29;20213;-85
2022/07/23 13:04:21;;;;;;;1.35;1.25;;;;;;;26.74;35.09;100836.16;9856779;30;20266;-86
2022/07/23 13:09:29;;;;;;;5.45;1.60;;;;;;;26.28;34.29;100850.16;9897208;30;20194;-84
2022/07/23 13:14:38;;;;;;;1.38;1.25;;;;;;;28.27;33.57;100839.59;9911207;30;20205;-85
2022/07/23 13:19:41;;;;;;;2.80;1.30;;;;;;;29.02;31.89;100840.31;9885007;30;20221;-83
2022/07/23 13:24:43;;;;;;;30.50;21.20;;;;;;;28.51;32.00;100838.75;9914926;30;20212;-80
2022/07/23 13:29:50;;;;;;;5.80;2.30;;;;;;;29.00;30.49;100839.91;9912935;29;20193;-78
2022/07/23 13:34:54;;;;;;;1.90;1.35;;;;;;;28.04;32.02;100837.91;9894474;30;20298;-81
2022/07/23 13:40:00;;;;;;;5.03;1.35;;;;;;;29.07;29.62;100822.63;9912743;30;20261;-81
2022/07/23 13:45:13;;;;;;;3.33;1.58;;;;;;;28.94;31.51;100825.09;9910572;29;20208;-80
2022/07/23 13:50:17;;;;;;;1.33;1.13;;;;;;;30.67;28.55;100825.25;9882598;29;20209;-78
2022/07/23 13:55:23;;;;;;;3.15;1.42;;;;;;;29.62;28.75;100817.81;9910650;29;20269;-83
2022/07/23 14:00:30;;;;;;;1.63;1.27;;;;;;;28.45;30.95;100815.31;9915079;29;20228;-83
2022/07/23 14:05:52;;;;;;;1.88;1.17;;;;;;;29.07;30.13;100814.78;9910591;30;20201;-82
2022/07/23 14:10:57;;;;;;;2.67;1.30;;;;;;;29.91;29.61;100809.00;9914343;30;20197;-85
2022/07/23 14:16:00;;;;;;;3.38;1.52;;;;;;;28.03;32.55;100821.09;9912636;30;20213;-83
2022/07/23 14:21:03;;;;;;;2.13;1.48;;;;;;;27.62;31.23;100818.56;9908994;30;20217;-87
2022/07/23 14:26:08;;;;;;;1.98;1.60;;;;;;;28.31;30.86;100814.50;9881838;30;20205;-86
2022/07/23 14:31:10;;;;;;;2.65;1.30;;;;;;;28.02;32.60;100822.31;9912082;29;20225;-82
2022/07/23 14:36:22;;;;;;;1.55;1.20;;;;;;;28.82;30.56;100811.97;9908652;30;20209;-82
2022/07/23 14:41:24;;;;;;;2.33;1.60;;;;;;;28.81;30.24;100809.56;9909877;29;20647;-84
2022/07/23 14:46:29;;;;;;;2.88;1.60;;;;;;;29.05;29.92;100808.63;9894453;30;20209;-80
2022/07/23 14:51:31;;;;;;;1.45;1.15;;;;;;;29.66;29.17;100803.41;9907178;30;20274;-82
2022/07/23 14:56:36;;;;;;;3.55;1.33;;;;;;;29.45;30.64;100804.38;9911055;30;20205;-80
2022/07/23 15:01:38;;;;;;;3.45;1.70;;;;;;;27.30;31.35;100804.06;9894534;29;20606;-80
2022/07/23 15:06:41;;;;;;;1.40;1.30;;;;;;;28.12;31.15;100807.97;9909361;30;20205;-79
2022/07/23 15:11:44;;;;;;;2.97;1.45;;;;;;;28.06;31.75;100803.00;9907559;30;20209;-80
2022/07/23 15:16:49;;;;;;;2.03;1.35;;;;;;;28.73;30.38;100800.09;9906578;30;20231;-82
2022/07/23 15:21:53;;;;;;;1.60;1.50;;;;;;;28.95;29.72;100793.03;9910249;30;20249;-83
2022/07/23 15:26:56;;;;;;;2.50;1.58;;;;;;;29.42;29.42;100792.84;9892727;30;20274;-84
2022/07/23 15:31:59;;;;;;;2.90;1.48;;;;;;;28.79;30.36;100783.22;9890126;29;20727;-84
2022/07/23 15:37:04;;;;;;;2.80;2.03;;;;;;;27.67;32.02;100795.16;9908973;30;20197;-82
2022/07/23 15:42:15;;;;;;;2.00;1.58;;;;;;;28.17;30.65;100792.34;9906313;30;20282;-81
2022/07/23 15:47:18;;;;;;;3.28;2.10;;;;;;;28.09;31.36;100791.53;9894214;30;20209;-84
2022/07/23 15:52:21;;;;;;;4.35;2.17;;;;;;;28.00;32.34;100799.72;9902515;29;20274;-83
2022/07/23 15:57:23;;;;;;;2.90;1.88;;;;;;;28.35;32.00;100800.97;9909831;29;20202;-83
2022/07/23 16:02:26;;;;;;;3.50;1.63;;;;;;;28.64;30.36;100796.84;9905704;30;20837;-83
2022/07/23 16:07:28;;;;;;;2.25;2.05;;;;;;;28.08;31.43;100794.78;9908320;30;20461;-81
2022/07/23 16:12:33;;;;;;;3.03;2.05;;;;;;;27.84;32.19;100796.41;9906978;29;20197;-83
2022/07/23 16:17:35;;;;;;;4.30;1.95;;;;;;;27.00;33.59;100803.53;9914237;29;20254;-82
2022/07/23 16:22:38;;;;;;;2.15;1.67;;;;;;;27.99;31.83;100797.25;9915190;30;20294;-82
2022/07/23 16:27:40;;;;;;;2.70;2.05;;;;;;;27.68;32.40;100790.25;9912856;30;20285;-82
2022/07/23 16:32:43;;;;;;;1.85;1.75;;;;;;;28.42;31.23;100789.47;9913460;29;20248;-83
2022/07/23 16:37:46;;;;;;;1.90;1.48;;;;;;;28.05;31.45;100793.53;9905612;29;20530;-83
2022/07/23 16:42:48;;;;;;;2.38;1.50;;;;;;;27.98;31.99;100793.56;9916008;30;20221;-83
2022/07/23 16:47:51;;;;;;;2.00;1.77;;;;;;;28.74;30.87;100784.47;9916254;30;20542;-83
2022/07/23 16:52:53;;;;;;;2.72;1.67;;;;;;;28.81;33.30;100787.31;9909599;29;20254;-81
2022/07/23 16:57:56;;;;;;;5.70;2.33;;;;;;;28.41;31.49;100790.69;9913685;30;20209;-84
2022/07/23 17:02:58;;;;;;;2.22;2.03;;;;;;;28.49;31.29;100781.63;9915538;29;20247;-83
2022/07/23 17:08:07;;;;;;;5.97;2.10;;;;;;;28.39;30.90;100787.41;9913438;30;20201;-84
2022/07/23 17:13:09;;;;;;;2.47;1.90;;;;;;;28.41;31.90;100782.88;9914518;30;20205;-84
2022/07/23 17:18:12;;;;;;;2.75;1.92;;;;;;;28.74;30.99;100790.22;9912387;30;20599;-83
2022/07/23 17:23:15;;;;;;;2.50;2.03;;;;;;;29.30;29.72;100785.50;9899588;30;20514;-83
2022/07/23 17:28:17;;;;;;;1.95;1.85;;;;;;;28.21;31.75;100796.88;9912178;29;20550;-83
2022/07/23 17:33:20;;;;;;;5.00;2.05;;;;;;;27.52;33.25;100802.06;9912311;29;20228;-83
2022/07/23 17:38:23;;;;;;;2.67;2.13;;;;;;;27.99;32.47;100797.25;9910223;30;20251;-83
2022/07/23 17:43:26;;;;;;;2.70;1.83;;;;;;;29.19;30.91;100791.34;9910968;29;20244;-83
2022/07/23 17:48:28;;;;;;;3.90;2.05;;;;;;;28.25;32.19;100800.56;9911827;29;20217;-83
2022/07/23 17:53:30;;;;;;;3.35;1.60;;;;;;;27.54;33.12;100794.72;9912558;30;20329;-83
2022/07/23 17:58:33;;;;;;;1.95;1.75;;;;;;;28.30;32.06;100801.38;9912228;30;20263;-83
2022/07/23 18:03:37;;;;;;;2.17;1.90;;;;;;;28.06;32.52;100809.56;9914428;30;20225;-81
2022/07/23 18:08:39;;;;;;;3.33;2.53;;;;;;;28.50;31.71;100802.59;9908129;29;20238;-84
2022/07/23 18:13:42;;;;;;;2.05;1.83;;;;;;;28.99;32.29;100803.72;9920931;29;20194;-83
2022/07/23 18:18:44;;;;;;;2.78;2.35;;;;;;;28.26;33.21;100812.91;9907653;29;20229;-84
2022/07/23 18:23:47;;;;;;;3.00;2.20;;;;;;;28.69;32.75;100810.78;9912279;29;20225;-83
2022/07/23 18:28:50;;;;;;;4.82;2.38;;;;;;;28.32;33.15;100813.28;9926017;29;20201;-84
2022/07/23 18:33:52;;;;;;;2.70;2.38;;;;;;;28.36;32.07;100812.06;9910046;29;20228;-79
2022/07/23 18:38:54;;;;;;;2.78;2.53;;;;;;;28.17;33.86;100816.16;9893153;30;20205;-81
2022/07/23 18:44:04;;;;;;;3.80;2.30;;;;;;;28.54;33.22;100812.03;9912828;30;20229;-79
2022/07/23 18:49:06;;;;;;;2.08;1.88;;;;;;;28.17;34.42;100821.09;9911576;30;20549;-79
2022/07/23 18:54:12;;;;;;;3.85;2.20;;;;;;;27.94;35.18;100821.47;9910134;29;20280;-79
2022/07/23 18:59:15;;;;;;;5.07;2.78;;;;;;;27.67;35.13;100815.28;9932443;29;20480;-78
2022/07/23 19:04:25;;;;;;;3.70;2.25;;;;;;;27.89;34.29;100827.66;9900857;29;20313;-78
2022/07/23 19:09:27;;;;;;;4.35;2.58;;;;;;;27.48;35.10;100830.81;9906644;29;20209;-78
2022/07/23 19:14:36;;;;;;;3.13;2.25;;;;;;;27.42;36.37;100828.72;9907302;29;20197;-78
2022/07/23 19:19:38;;;;;;;3.60;2.10;;;;;;;27.51;36.68;100832.84;9927551;29;20213;-79
2022/07/23 19:24:43;;;;;;;2.83;1.90;;;;;;;27.07;37.42;100838.03;9910505;29;20224;-82
2022/07/23 19:29:46;;;;;;;2.85;2.20;;;;;;;26.83;38.26;100833.78;9911582;29;20219;-79
2022/07/23 19:34:49;;;;;;;4.10;2.30;;;;;;;26.71;37.43;100851.34;9908437;29;20631;-78
2022/07/23 19:39:51;;;;;;;4.85;2.10;;;;;;;26.96;37.03;100857.22;9895447;29;20306;-79
2022/07/23 19:44:53;;;;;;;3.10;2.08;;;;;;;26.82;37.55;100853.03;9910604;30;20627;-79
2022/07/23 19:49:56;;;;;;;4.00;2.53;;;;;;;26.44;39.12;100862.19;9891454;30;20546;-79
2022/07/23 19:54:58;;;;;;;2.70;2.50;;;;;;;26.57;38.36;100866.41;9924187;29;20227;-79
2022/07/23 20:00:01;;;;;;;4.15;2.75;;;;;;;26.50;38.45;100877.78;9889957;29;20265;-79
2022/07/23 20:05:07;;;;;;;3.00;2.50;;;;;;;25.97;39.93;100866.66;9906077;29;20225;-79
2022/07/23 20:10:10;;;;;;;4.38;2.63;;;;;;;25.88;40.66;100871.88;9908051;30;20226;-79
2022/07/23 20:15:12;;;;;;;3.42;2.78;;;;;;;25.92;40.16;100872.75;9909420;29;20197;-79
2022/07/23 20:20:14;;;;;;;3.10;2.53;;;;;;;26.01;40.33;100878.97;9909104;30;20250;-79
2022/07/23 20:25:17;;;;;;;2.78;2.50;;;;;;;25.92;40.47;100886.25;9909851;30;20396;-79
2022/07/23 20:30:19;;;;;;;6.35;3.33;;;;;;;25.89;41.12;100887.03;9907806;29;20271;-79
2022/07/23 20:35:25;;;;;;;5.60;3.05;;;;;;;25.87;40.57;100875.97;9920970;29;20202;-79
2022/07/23 20:40:28;;;;;;;4.25;3.67;;;;;;;25.69;42.03;100889.25;9907126;29;20209;-80
2022/07/23 20:45:31;;;;;;;4.55;3.50;;;;;;;25.78;41.27;100886.91;9921465;29;20239;-79
2022/07/23 20:50:33;;;;;;;5.20;3.85;;;;;;;25.90;41.71;100889.53;9892719;30;20554;-79
2022/07/23 20:55:36;;;;;;;5.70;4.40;;;;;;;25.69;41.52;100889.25;9907569;30;20546;-78
2022/07/23 21:00:38;;;;;;;7.13;5.18;;;;;;;25.70;42.89;100896.63;9909196;29;20266;-80
2022/07/23 21:05:43;;;;;;;9.52;5.38;;;;;;;25.45;43.54;100899.19;9911228;29;20213;-79
2022/07/23 21:10:46;;;;;;;8.30;4.40;;;;;;;25.34;43.32;100901.91;9915805;29;20251;-78
2022/07/23 21:15:48;;;;;;;5.05;3.45;;;;;;;25.37;42.75;100904.00;9911157;30;20243;-78
2022/07/23 21:21:11;;;;;;;5.50;4.18;;;;;;;25.13;44.29;100906.50;9923940;29;20251;-78
2022/07/23 21:26:14;;;;;;;7.65;4.82;;;;;;;25.13;44.32;100913.06;9926532;29;20546;-79
2022/07/23 21:31:34;;;;;;;4.70;3.38;;;;;;;25.22;43.66;100916.47;9910867;29;20233;-79
2022/07/23 21:36:36;;;;;;;6.32;3.45;;;;;;;25.27;44.32;100910.44;9882669;30;20262;-79
2022/07/23 21:41:38;;;;;;;5.80;3.80;;;;;;;25.22;44.30;100915.66;9914979;30;20291;-80
2022/07/23 21:46:42;;;;;;;6.43;3.92;;;;;;;25.21;44.45;100917.69;9913761;30;20262;-79
2022/07/23 21:51:44;;;;;;;5.63;3.63;;;;;;;24.99;44.70;100918.56;9913720;30;20197;-79
2022/07/23 21:56:46;;;;;;;5.13;3.10;;;;;;;25.02;44.50;100910.06;9928948;29;20580;-79
2022/07/23 22:01:49;;;;;;;6.07;3.58;;;;;;;24.96;44.36;100902.16;9928233;29;20639;-79
2022/07/23 22:06:52;;;;;;;4.85;3.65;;;;;;;24.77;44.91;100917.44;9914707;30;20193;-80
2022/07/23 22:11:54;;;;;;;5.32;3.58;;;;;;;24.81;45.22;100917.47;9912275;29;20197;-79
2022/07/23 22:16:56;;;;;;;5.53;3.60;;;;;;;25.09;43.92;100918.72;9913882;30;20259;-79
2022/07/23 22:21:58;;;;;;;4.80;3.30;;;;;;;24.83;44.49;100912.19;9912981;30;20792;-79
2022/07/23 22:27:01;;;;;;;4.55;3.65;;;;;;;24.55;46.39;100921.09;9912744;30;20205;-79
2022/07/23 22:32:03;;;;;;;3.65;3.35;;;;;;;24.59;45.56;100927.75;9912418;29;20578;-79
2022/07/23 22:37:06;;;;;;;7.15;3.38;;;;;;;24.77;43.59;100916.59;9913280;30;20202;-80
2022/07/23 22:42:08;;;;;;;4.78;3.70;;;;;;;24.67;44.76;100918.88;9912284;30;20213;-80
2022/07/23 22:47:10;;;;;;;4.13;3.65;;;;;;;24.61;45.17;100913.91;9912972;30;20197;-79
2022/07/23 22:52:13;;;;;;;3.58;2.88;;;;;;;24.55;45.08;100921.09;9898943;30;20213;-79
2022/07/23 22:57:17;;;;;;;3.50;2.50;;;;;;;24.36;45.58;100916.31;9908924;30;20259;-80
2022/07/23 23:02:20;;;;;;;5.07;3.28;;;;;;;24.24;47.28;100919.38;9893635;29;20229;-79
2022/07/23 23:07:22;;;;;;;4.45;3.40;;;;;;;24.25;46.90;100926.75;9910258;30;20546;-79
2022/07/23 23:12:24;;;;;;;3.05;2.75;;;;;;;24.29;46.45;100924.75;9911146;30;20197;-79
2022/07/23 23:17:27;;;;;;;6.72;3.55;;;;;;;24.18;46.32;100918.00;9911841;30;20201;-79
2022/07/23 23:22:29;;;;;;;4.25;3.17;;;;;;;24.18;45.85;100918.00;9911408;29;20205;-78